sensor_id;sensor_type;location;lat;lon;timestamp;pressure;altitude;pressure_sealevel;temperature
52673;BMP280;38568;53.260;-2.504;2023-07-13T00:02:18;101034.83;;;22.25
52673;BMP280;38568;53.260;-2.504;2023-07-13T00:04:41;101034.83;;;22.43
52673;BMP280;38568;53.260;-2.504;2023-07-13T00:07:03;101033.54;;;22.05
52673;BMP280;38568;53.260;-2.504;2023-07-13T00:09:29;101029.85;;;22.33
52673;BMP280;38568;53.260;-2.504;2023-07-13T00:11:56;101027.12;;;22.49
52673;BMP280;38568;53.260;-2.504;2023-07-13T00:14:20;101025.25;;;22.26
52673;BMP280;38568;53.260;-2.504;2023-07-13T00:16:45;101022.61;;;22.24
52673;BMP280;38568;53.260;-2.504;2023-07-13T00:19:11;101027.22;;;22.15
52673;BMP280;38568;53.260;-2.504;2023-07-13T00:21:37;101027.67;;;22.53
52673;BMP280;38568;53.260;-2.504;2023-07-13T00:24:04;101026.69;;;22.15
52673;BMP280;38568;53.260;-2.504;2023-07-13T00:26:28;101026.77;;;22.37
52673;BMP280;38568;53.260;-2.504;2023-07-13T00:28:58;101026.97;;;22.31
52673;BMP280;38568;53.260;-2.504;2023-07-13T00:31:24;101024.92;;;22.12
52673;BMP280;38568;53.260;-2.504;2023-07-13T00:33:45;101023.59;;;22.18
52673;BMP280;38568;53.260;-2.504;2023-07-13T00:36:11;101024.92;;;22.10
52673;BMP280;38568;53.260;-2.504;2023-07-13T00:38:36;101026.59;;;22.33
52673;BMP280;38568;53.260;-2.504;2023-07-13T00:41:02;101028.22;;;22.18
52673;BMP280;38568;53.260;-2.504;2023-07-13T00:43:34;101028.91;;;22.36
52673;BMP280;38568;53.260;-2.504;2023-07-13T00:48:21;101038.96;;;21.94
52673;BMP280;38568;53.260;-2.504;2023-07-13T00:50:45;101040.19;;;22.00
52673;BMP280;38568;53.260;-2.504;2023-07-13T00:53:10;101033.21;;;22.07
52673;BMP280;38568;53.260;-2.504;2023-07-13T00:55:36;101033.06;;;22.28
52673;BMP280;38568;53.260;-2.504;2023-07-13T00:58:02;101033.87;;;21.87
52673;BMP280;38568;53.260;-2.504;2023-07-13T01:00:27;101036.42;;;22.30
52673;BMP280;38568;53.260;-2.504;2023-07-13T01:02:54;101037.82;;;22.21
52673;BMP280;38568;53.260;-2.504;2023-07-13T01:05:20;101038.49;;;22.07
52673;BMP280;38568;53.260;-2.504;2023-07-13T01:07:44;101037.03;;;22.25
52673;BMP280;38568;53.260;-2.504;2023-07-13T01:10:11;101034.33;;;21.98
52673;BMP280;38568;53.260;-2.504;2023-07-13T01:12:36;101032.57;;;22.09
52673;BMP280;38568;53.260;-2.504;2023-07-13T01:15:02;101036.40;;;22.07
52673;BMP280;38568;53.260;-2.504;2023-07-13T01:17:28;101040.88;;;22.17
52673;BMP280;38568;53.260;-2.504;2023-07-13T01:19:53;101046.68;;;22.12
52673;BMP280;38568;53.260;-2.504;2023-07-13T01:22:21;101050.38;;;22.06
52673;BMP280;38568;53.260;-2.504;2023-07-13T01:24:46;101053.33;;;21.97
52673;BMP280;38568;53.260;-2.504;2023-07-13T01:27:13;101054.63;;;22.03
52673;BMP280;38568;53.260;-2.504;2023-07-13T01:29:38;101053.86;;;21.92
52673;BMP280;38568;53.260;-2.504;2023-07-13T01:32:08;101052.49;;;22.04
52673;BMP280;38568;53.260;-2.504;2023-07-13T01:34:28;101051.46;;;21.88
52673;BMP280;38568;53.260;-2.504;2023-07-13T01:36:54;101053.99;;;22.06
52673;BMP280;38568;53.260;-2.504;2023-07-13T01:39:20;101055.92;;;22.00
52673;BMP280;38568;53.260;-2.504;2023-07-13T01:41:45;101055.95;;;22.02
52673;BMP280;38568;53.260;-2.504;2023-07-13T01:44:11;101053.29;;;21.69
52673;BMP280;38568;53.260;-2.504;2023-07-13T01:46:38;101053.12;;;22.01
52673;BMP280;38568;53.260;-2.504;2023-07-13T01:49:03;101058.95;;;21.96
52673;BMP280;38568;53.260;-2.504;2023-07-13T01:51:31;101060.87;;;21.94
52673;BMP280;38568;53.260;-2.504;2023-07-13T01:53:58;101060.01;;;21.98
52673;BMP280;38568;53.260;-2.504;2023-07-13T01:56:19;101057.31;;;21.96
52673;BMP280;38568;53.260;-2.504;2023-07-13T01:58:47;101055.95;;;21.84
52673;BMP280;38568;53.260;-2.504;2023-07-13T02:01:11;101055.37;;;21.90
52673;BMP280;38568;53.260;-2.504;2023-07-13T02:03:38;101054.15;;;21.91
52673;BMP280;38568;53.260;-2.504;2023-07-13T02:06:02;101050.95;;;21.88
52673;BMP280;38568;53.260;-2.504;2023-07-13T02:08:31;101044.76;;;21.65
52673;BMP280;38568;53.260;-2.504;2023-07-13T02:10:54;101042.77;;;22.18
52673;BMP280;38568;53.260;-2.504;2023-07-13T02:13:19;101043.90;;;21.89
52673;BMP280;38568;53.260;-2.504;2023-07-13T02:15:48;101043.39;;;21.90
52673;BMP280;38568;53.260;-2.504;2023-07-13T02:18:11;101043.42;;;21.59
52673;BMP280;38568;53.260;-2.504;2023-07-13T02:20:37;101042.32;;;21.80
52673;BMP280;38568;53.260;-2.504;2023-07-13T02:23:02;101042.37;;;22.01
52673;BMP280;38568;53.260;-2.504;2023-07-13T02:25:28;101042.51;;;21.78
52673;BMP280;38568;53.260;-2.504;2023-07-13T02:27:53;101040.73;;;21.78
52673;BMP280;38568;53.260;-2.504;2023-07-13T02:30:19;101041.70;;;21.71
52673;BMP280;38568;53.260;-2.504;2023-07-13T02:32:52;101040.09;;;21.79
52673;BMP280;38568;53.260;-2.504;2023-07-13T02:35:13;101042.20;;;22.04
52673;BMP280;38568;53.260;-2.504;2023-07-13T02:37:36;101043.34;;;21.77
52673;BMP280;38568;53.260;-2.504;2023-07-13T02:40:05;101042.28;;;21.79
52673;BMP280;38568;53.260;-2.504;2023-07-13T02:42:39;101037.59;;;21.87
52673;BMP280;38568;53.260;-2.504;2023-07-13T02:45:01;101033.81;;;21.85
52673;BMP280;38568;53.260;-2.504;2023-07-13T02:47:21;101033.57;;;21.95
52673;BMP280;38568;53.260;-2.504;2023-07-13T02:49:56;101039.35;;;22.06
52673;BMP280;38568;53.260;-2.504;2023-07-13T02:52:11;101042.07;;;21.73
52673;BMP280;38568;53.260;-2.504;2023-07-13T02:54:48;101041.28;;;21.80
52673;BMP280;38568;53.260;-2.504;2023-07-13T02:57:13;101039.69;;;21.93
52673;BMP280;38568;53.260;-2.504;2023-07-13T02:59:30;101043.34;;;21.82
52673;BMP280;38568;53.260;-2.504;2023-07-13T03:01:54;101043.05;;;21.71
52673;BMP280;38568;53.260;-2.504;2023-07-13T03:04:24;101043.42;;;21.99
52673;BMP280;38568;53.260;-2.504;2023-07-13T03:06:46;101042.93;;;21.75
52673;BMP280;38568;53.260;-2.504;2023-07-13T03:09:17;101039.99;;;21.78
52673;BMP280;38568;53.260;-2.504;2023-07-13T03:11:42;101039.60;;;21.52
52673;BMP280;38568;53.260;-2.504;2023-07-13T03:16:38;101042.00;;;21.63
52673;BMP280;38568;53.260;-2.504;2023-07-13T03:18:55;101045.48;;;21.78
52673;BMP280;38568;53.260;-2.504;2023-07-13T03:21:21;101045.52;;;21.63
52673;BMP280;38568;53.260;-2.504;2023-07-13T03:23:47;101047.79;;;21.65
52673;BMP280;38568;53.260;-2.504;2023-07-13T03:26:15;101051.96;;;21.71
52673;BMP280;38568;53.260;-2.504;2023-07-13T03:28:38;101049.30;;;21.63
52673;BMP280;38568;53.260;-2.504;2023-07-13T03:31:10;101050.01;;;21.84
52673;BMP280;38568;53.260;-2.504;2023-07-13T03:33:31;101053.93;;;21.61
52673;BMP280;38568;53.260;-2.504;2023-07-13T03:35:55;101052.72;;;21.63
52673;BMP280;38568;53.260;-2.504;2023-07-13T03:38:21;101056.39;;;21.90
52673;BMP280;38568;53.260;-2.504;2023-07-13T03:40:52;101060.71;;;21.86
52673;BMP280;38568;53.260;-2.504;2023-07-13T03:43:12;101059.76;;;22.04
52673;BMP280;38568;53.260;-2.504;2023-07-13T03:45:38;101062.16;;;22.16
52673;BMP280;38568;53.260;-2.504;2023-07-13T03:48:04;101065.39;;;22.10
52673;BMP280;38568;53.260;-2.504;2023-07-13T03:50:29;101064.92;;;21.88
52673;BMP280;38568;53.260;-2.504;2023-07-13T03:52:55;101067.63;;;22.01
52673;BMP280;38568;53.260;-2.504;2023-07-13T03:55:22;101067.77;;;21.76
52673;BMP280;38568;53.260;-2.504;2023-07-13T03:57:47;101065.63;;;21.92
52673;BMP280;38568;53.260;-2.504;2023-07-13T04:00:16;101065.39;;;21.86
52673;BMP280;38568;53.260;-2.504;2023-07-13T04:02:38;101068.80;;;22.01
52673;BMP280;38568;53.260;-2.504;2023-07-13T04:05:06;101070.60;;;21.82
52673;BMP280;38568;53.260;-2.504;2023-07-13T04:07:30;101072.83;;;21.84
52673;BMP280;38568;53.260;-2.504;2023-07-13T04:10:02;101071.75;;;21.79
52673;BMP280;38568;53.260;-2.504;2023-07-13T04:12:21;101071.00;;;21.86
52673;BMP280;38568;53.260;-2.504;2023-07-13T04:14:47;101072.09;;;21.93
52673;BMP280;38568;53.260;-2.504;2023-07-13T04:17:13;101072.59;;;21.83
52673;BMP280;38568;53.260;-2.504;2023-07-13T04:19:39;101074.80;;;22.04
52673;BMP280;38568;53.260;-2.504;2023-07-13T04:22:05;101078.00;;;21.53
52673;BMP280;38568;53.260;-2.504;2023-07-13T04:24:31;101076.61;;;21.59
52673;BMP280;38568;53.260;-2.504;2023-07-13T04:26:56;101081.57;;;21.68
52673;BMP280;38568;53.260;-2.504;2023-07-13T04:29:21;101086.54;;;21.87
52673;BMP280;38568;53.260;-2.504;2023-07-13T04:31:48;101088.44;;;21.91
52673;BMP280;38568;53.260;-2.504;2023-07-13T04:34:13;101086.90;;;21.67
52673;BMP280;38568;53.260;-2.504;2023-07-13T04:36:39;101086.47;;;21.76
52673;BMP280;38568;53.260;-2.504;2023-07-13T04:39:05;101090.43;;;21.70
52673;BMP280;38568;53.260;-2.504;2023-07-13T04:41:30;101093.11;;;21.68
52673;BMP280;38568;53.260;-2.504;2023-07-13T04:43:57;101094.55;;;21.61
52673;BMP280;38568;53.260;-2.504;2023-07-13T04:46:22;101093.32;;;21.67
52673;BMP280;38568;53.260;-2.504;2023-07-13T04:48:49;101094.28;;;21.63
52673;BMP280;38568;53.260;-2.504;2023-07-13T04:51:14;101092.90;;;21.83
52673;BMP280;38568;53.260;-2.504;2023-07-13T04:53:47;101092.24;;;21.90
52673;BMP280;38568;53.260;-2.504;2023-07-13T04:56:05;101094.31;;;21.59
52673;BMP280;38568;53.260;-2.504;2023-07-13T04:58:30;101097.10;;;21.52
52673;BMP280;38568;53.260;-2.504;2023-07-13T05:01:01;101098.87;;;21.62
52673;BMP280;38568;53.260;-2.504;2023-07-13T05:03:22;101099.34;;;21.64
52673;BMP280;38568;53.260;-2.504;2023-07-13T05:05:56;101102.96;;;21.53
52673;BMP280;38568;53.260;-2.504;2023-07-13T05:08:13;101106.05;;;21.99
52673;BMP280;38568;53.260;-2.504;2023-07-13T05:10:39;101105.87;;;21.97
52673;BMP280;38568;53.260;-2.504;2023-07-13T05:13:04;101102.98;;;21.88
52673;BMP280;38568;53.260;-2.504;2023-07-13T05:15:37;101104.55;;;21.75
52673;BMP280;38568;53.260;-2.504;2023-07-13T05:17:57;101108.65;;;22.28
52673;BMP280;38568;53.260;-2.504;2023-07-13T05:20:24;101111.46;;;21.99
52673;BMP280;38568;53.260;-2.504;2023-07-13T05:22:54;101113.79;;;22.12
52673;BMP280;38568;53.260;-2.504;2023-07-13T05:25:14;101117.26;;;21.94
52673;BMP280;38568;53.260;-2.504;2023-07-13T05:27:40;101123.87;;;22.18
52673;BMP280;38568;53.260;-2.504;2023-07-13T05:30:07;101125.26;;;22.04
52673;BMP280;38568;53.260;-2.504;2023-07-13T05:32:31;101127.78;;;21.80
52673;BMP280;38568;53.260;-2.504;2023-07-13T05:34:57;101129.44;;;22.10
52673;BMP280;38568;53.260;-2.504;2023-07-13T05:37:22;101129.98;;;22.08
52673;BMP280;38568;53.260;-2.504;2023-07-13T05:39:48;101132.78;;;21.95
52673;BMP280;38568;53.260;-2.504;2023-07-13T05:42:13;101135.57;;;21.81
52673;BMP280;38568;53.260;-2.504;2023-07-13T05:44:39;101135.21;;;22.03
52673;BMP280;38568;53.260;-2.504;2023-07-13T05:47:06;101135.56;;;21.78
52673;BMP280;38568;53.260;-2.504;2023-07-13T05:49:31;101140.37;;;21.79
52673;BMP280;38568;53.260;-2.504;2023-07-13T05:52:02;101143.99;;;21.94
52673;BMP280;38568;53.260;-2.504;2023-07-13T05:54:23;101148.63;;;21.69
52673;BMP280;38568;53.260;-2.504;2023-07-13T05:56:48;101147.09;;;21.71
52673;BMP280;38568;53.260;-2.504;2023-07-13T05:59:15;101148.17;;;21.46
52673;BMP280;38568;53.260;-2.504;2023-07-13T06:01:41;101149.43;;;21.53
52673;BMP280;38568;53.260;-2.504;2023-07-13T06:04:08;101152.47;;;21.73
52673;BMP280;38568;53.260;-2.504;2023-07-13T06:06:37;101156.72;;;21.84
52673;BMP280;38568;53.260;-2.504;2023-07-13T06:08:57;101157.95;;;21.89
52673;BMP280;38568;53.260;-2.504;2023-07-13T06:11:25;101155.89;;;21.69
52673;BMP280;38568;53.260;-2.504;2023-07-13T06:13:50;101159.52;;;21.60
52673;BMP280;38568;53.260;-2.504;2023-07-13T06:16:15;101161.41;;;21.76
52673;BMP280;38568;53.260;-2.504;2023-07-13T06:18:41;101161.75;;;21.86
52673;BMP280;38568;53.260;-2.504;2023-07-13T06:21:08;101163.89;;;21.84
52673;BMP280;38568;53.260;-2.504;2023-07-13T06:23:33;101165.02;;;21.94
52673;BMP280;38568;53.260;-2.504;2023-07-13T06:26:03;101166.04;;;21.92
52673;BMP280;38568;53.260;-2.504;2023-07-13T06:28:24;101167.89;;;21.99
52673;BMP280;38568;53.260;-2.504;2023-07-13T06:30:50;101168.34;;;22.03
52673;BMP280;38568;53.260;-2.504;2023-07-13T06:33:15;101175.42;;;21.91
52673;BMP280;38568;53.260;-2.504;2023-07-13T06:35:41;101174.52;;;22.25
52673;BMP280;38568;53.260;-2.504;2023-07-13T06:38:07;101175.96;;;21.89
52673;BMP280;38568;53.260;-2.504;2023-07-13T06:40:32;101179.34;;;22.14
52673;BMP280;38568;53.260;-2.504;2023-07-13T06:42:58;101180.66;;;21.97
52673;BMP280;38568;53.260;-2.504;2023-07-13T06:45:24;101182.49;;;22.08
52673;BMP280;38568;53.260;-2.504;2023-07-13T06:47:49;101181.35;;;21.93
52673;BMP280;38568;53.260;-2.504;2023-07-13T06:50:16;101178.65;;;21.73
52673;BMP280;38568;53.260;-2.504;2023-07-13T06:52:51;101176.43;;;21.61
52673;BMP280;38568;53.260;-2.504;2023-07-13T06:57:32;101183.98;;;22.01
52673;BMP280;38568;53.260;-2.504;2023-07-13T06:59:58;101187.44;;;21.99
52673;BMP280;38568;53.260;-2.504;2023-07-13T07:02:23;101189.48;;;21.99
52673;BMP280;38568;53.260;-2.504;2023-07-13T07:04:49;101189.09;;;21.76
52673;BMP280;38568;53.260;-2.504;2023-07-13T07:07:15;101194.78;;;21.93
52673;BMP280;38568;53.260;-2.504;2023-07-13T07:09:40;101194.53;;;22.15
52673;BMP280;38568;53.260;-2.504;2023-07-13T07:12:07;101195.21;;;22.31
52673;BMP280;38568;53.260;-2.504;2023-07-13T07:14:32;101199.01;;;22.73
52673;BMP280;38568;53.260;-2.504;2023-07-13T07:16:58;101199.46;;;22.93
52673;BMP280;38568;53.260;-2.504;2023-07-13T07:19:24;101204.38;;;22.53
52673;BMP280;38568;53.260;-2.504;2023-07-13T07:21:50;101204.80;;;22.66
52673;BMP280;38568;53.260;-2.504;2023-07-13T07:24:15;101206.19;;;22.16
52673;BMP280;38568;53.260;-2.504;2023-07-13T07:26:41;101204.79;;;22.67
52673;BMP280;38568;53.260;-2.504;2023-07-13T07:29:07;101210.27;;;22.20
52673;BMP280;38568;53.260;-2.504;2023-07-13T07:31:33;101208.88;;;21.85
52673;BMP280;38568;53.260;-2.504;2023-07-13T07:33:58;101206.35;;;22.08
52673;BMP280;38568;53.260;-2.504;2023-07-13T07:36:24;101211.73;;;21.92
52673;BMP280;38568;53.260;-2.504;2023-07-13T07:38:50;101214.28;;;21.74
52673;BMP280;38568;53.260;-2.504;2023-07-13T07:41:16;101215.22;;;22.07
52673;BMP280;38568;53.260;-2.504;2023-07-13T07:43:42;101218.10;;;21.96
52673;BMP280;38568;53.260;-2.504;2023-07-13T07:46:07;101217.23;;;21.88
52673;BMP280;38568;53.260;-2.504;2023-07-13T07:48:33;101219.26;;;21.98
52673;BMP280;38568;53.260;-2.504;2023-07-13T07:50:59;101222.53;;;22.32
52673;BMP280;38568;53.260;-2.504;2023-07-13T07:53:25;101227.92;;;21.91
52673;BMP280;38568;53.260;-2.504;2023-07-13T07:55:50;101224.53;;;22.07
52673;BMP280;38568;53.260;-2.504;2023-07-13T07:58:18;101226.73;;;21.62
52673;BMP280;38568;53.260;-2.504;2023-07-13T08:00:47;101230.92;;;22.03
52673;BMP280;38568;53.260;-2.504;2023-07-13T08:03:08;101232.85;;;22.31
52673;BMP280;38568;53.260;-2.504;2023-07-13T08:05:35;101231.97;;;22.53
52673;BMP280;38568;53.260;-2.504;2023-07-13T08:07:59;101231.68;;;22.55
52673;BMP280;38568;53.260;-2.504;2023-07-13T08:10:26;101231.73;;;22.20
52673;BMP280;38568;53.260;-2.504;2023-07-13T08:12:50;101232.01;;;22.25
52673;BMP280;38568;53.260;-2.504;2023-07-13T08:15:19;101230.21;;;22.33
52673;BMP280;38568;53.260;-2.504;2023-07-13T08:17:42;101231.90;;;22.07
52673;BMP280;38568;53.260;-2.504;2023-07-13T08:20:09;101230.50;;;22.39
52673;BMP280;38568;53.260;-2.504;2023-07-13T08:22:34;101227.22;;;22.26
52673;BMP280;38568;53.260;-2.504;2023-07-13T08:24:59;101224.04;;;22.41
52673;BMP280;38568;53.260;-2.504;2023-07-13T08:27:27;101219.98;;;22.38
52673;BMP280;38568;53.260;-2.504;2023-07-13T08:29:52;101224.48;;;22.06
52673;BMP280;38568;53.260;-2.504;2023-07-13T08:32:17;101224.11;;;22.03
52673;BMP280;38568;53.260;-2.504;2023-07-13T08:34:42;101226.25;;;22.06
52673;BMP280;38568;53.260;-2.504;2023-07-13T08:37:08;101225.77;;;21.97
52673;BMP280;38568;53.260;-2.504;2023-07-13T08:39:34;101221.37;;;22.33
52673;BMP280;38568;53.260;-2.504;2023-07-13T08:42:11;101223.98;;;22.24
52673;BMP280;38568;53.260;-2.504;2023-07-13T08:44:30;101226.62;;;21.94
52673;BMP280;38568;53.260;-2.504;2023-07-13T08:46:52;101226.32;;;22.00
52673;BMP280;38568;53.260;-2.504;2023-07-13T08:49:21;101226.61;;;22.00
52673;BMP280;38568;53.260;-2.504;2023-07-13T08:51:45;101226.72;;;22.13
52673;BMP280;38568;53.260;-2.504;2023-07-13T08:54:16;101223.29;;;22.11
52673;BMP280;38568;53.260;-2.504;2023-07-13T08:56:34;101223.72;;;21.99
52673;BMP280;38568;53.260;-2.504;2023-07-13T08:59:15;101223.14;;;22.39
52673;BMP280;38568;53.260;-2.504;2023-07-13T09:01:32;101226.11;;;21.95
52673;BMP280;38568;53.260;-2.504;2023-07-13T09:03:56;101226.64;;;21.98
52673;BMP280;38568;53.260;-2.504;2023-07-13T09:06:17;101226.41;;;22.41
52673;BMP280;38568;53.260;-2.504;2023-07-13T09:08:51;101226.98;;;22.06
52673;BMP280;38568;53.260;-2.504;2023-07-13T09:11:18;101234.04;;;22.39
52673;BMP280;38568;53.260;-2.504;2023-07-13T09:13:41;101229.59;;;22.15
52673;BMP280;38568;53.260;-2.504;2023-07-13T09:16:01;101234.53;;;21.37
52673;BMP280;38568;53.260;-2.504;2023-07-13T09:18:28;101235.13;;;22.23
52673;BMP280;38568;53.260;-2.504;2023-07-13T09:20:52;101235.10;;;22.44
52673;BMP280;38568;53.260;-2.504;2023-07-13T09:23:17;101235.70;;;22.15
52673;BMP280;38568;53.260;-2.504;2023-07-13T09:25:41;101236.15;;;22.53
52673;BMP280;38568;53.260;-2.504;2023-07-13T09:28:11;101235.24;;;22.53
52673;BMP280;38568;53.260;-2.504;2023-07-13T09:30:36;101237.40;;;22.06
52673;BMP280;38568;53.260;-2.504;2023-07-13T09:32:57;101241.21;;;22.15
52673;BMP280;38568;53.260;-2.504;2023-07-13T09:35:27;101235.38;;;22.57
52673;BMP280;38568;53.260;-2.504;2023-07-13T09:37:49;101232.98;;;22.46
52673;BMP280;38568;53.260;-2.504;2023-07-13T09:40:20;101232.57;;;23.16
52673;BMP280;38568;53.260;-2.504;2023-07-13T09:42:41;101232.37;;;22.74
52673;BMP280;38568;53.260;-2.504;2023-07-13T09:45:07;101231.44;;;22.71
52673;BMP280;38568;53.260;-2.504;2023-07-13T09:47:38;101234.65;;;22.71
52673;BMP280;38568;53.260;-2.504;2023-07-13T09:50:01;101236.22;;;22.79
52673;BMP280;38568;53.260;-2.504;2023-07-13T09:52:24;101238.45;;;22.73
52673;BMP280;38568;53.260;-2.504;2023-07-13T09:54:51;101236.53;;;22.61
52673;BMP280;38568;53.260;-2.504;2023-07-13T09:57:17;101239.60;;;22.67
52673;BMP280;38568;53.260;-2.504;2023-07-13T09:59:44;101237.49;;;22.85
52673;BMP280;38568;53.260;-2.504;2023-07-13T10:04:34;101242.04;;;22.98
52673;BMP280;38568;53.260;-2.504;2023-07-13T10:07:05;101240.61;;;22.65
52673;BMP280;38568;53.260;-2.504;2023-07-13T10:09:24;101244.69;;;23.01
52673;BMP280;38568;53.260;-2.504;2023-07-13T10:11:50;101246.37;;;22.91
52673;BMP280;38568;53.260;-2.504;2023-07-13T10:14:18;101242.77;;;22.88
52673;BMP280;38568;53.260;-2.504;2023-07-13T10:16:44;101241.75;;;23.05
52673;BMP280;38568;53.260;-2.504;2023-07-13T10:19:12;101239.88;;;23.08
52673;BMP280;38568;53.260;-2.504;2023-07-13T10:21:38;101238.44;;;22.86
52673;BMP280;38568;53.260;-2.504;2023-07-13T10:24:05;101245.64;;;23.07
52673;BMP280;38568;53.260;-2.504;2023-07-13T10:26:27;101240.85;;;23.22
52673;BMP280;38568;53.260;-2.504;2023-07-13T10:28:54;101243.26;;;22.93
52673;BMP280;38568;53.260;-2.504;2023-07-13T10:31:16;101244.88;;;22.98
52673;BMP280;38568;53.260;-2.504;2023-07-13T10:33:42;101247.21;;;22.81
52673;BMP280;38568;53.260;-2.504;2023-07-13T10:36:15;101246.08;;;22.85
52673;BMP280;38568;53.260;-2.504;2023-07-13T10:38:34;101248.52;;;23.04
52673;BMP280;38568;53.260;-2.504;2023-07-13T10:41:02;101250.33;;;23.13
52673;BMP280;38568;53.260;-2.504;2023-07-13T10:43:27;101249.47;;;22.86
52673;BMP280;38568;53.260;-2.504;2023-07-13T10:45:51;101250.53;;;22.92
52673;BMP280;38568;53.260;-2.504;2023-07-13T10:48:17;101245.07;;;22.80
52673;BMP280;38568;53.260;-2.504;2023-07-13T10:50:45;101248.75;;;22.84
52673;BMP280;38568;53.260;-2.504;2023-07-13T10:53:19;101246.63;;;22.99
52673;BMP280;38568;53.260;-2.504;2023-07-13T10:55:36;101246.31;;;23.10
52673;BMP280;38568;53.260;-2.504;2023-07-13T10:58:01;101246.22;;;23.19
52673;BMP280;38568;53.260;-2.504;2023-07-13T11:00:25;101246.99;;;22.73
52673;BMP280;38568;53.260;-2.504;2023-07-13T11:02:56;101248.27;;;23.05
52673;BMP280;38568;53.260;-2.504;2023-07-13T11:05:26;101246.43;;;22.86
52673;BMP280;38568;53.260;-2.504;2023-07-13T11:07:52;101250.35;;;22.84
52673;BMP280;38568;53.260;-2.504;2023-07-13T11:10:45;101247.14;;;23.04
52673;BMP280;38568;53.260;-2.504;2023-07-13T11:15:04;101246.61;;;23.27
52673;BMP280;38568;53.260;-2.504;2023-07-13T11:17:36;101253.13;;;23.30
52673;BMP280;38568;53.260;-2.504;2023-07-13T11:19:52;101250.54;;;22.80
52673;BMP280;38568;53.260;-2.504;2023-07-13T11:22:24;101245.66;;;23.08
52673;BMP280;38568;53.260;-2.504;2023-07-13T11:24:52;101242.51;;;22.53
52673;BMP280;38568;53.260;-2.504;2023-07-13T11:27:21;101245.09;;;22.48
52673;BMP280;38568;53.260;-2.504;2023-07-13T11:29:37;101243.18;;;22.17
52673;BMP280;38568;53.260;-2.504;2023-07-13T11:32:21;101240.89;;;22.41
52673;BMP280;38568;53.260;-2.504;2023-07-13T11:34:30;101241.10;;;22.64
52673;BMP280;38568;53.260;-2.504;2023-07-13T11:36:52;101241.99;;;22.76
52673;BMP280;38568;53.260;-2.504;2023-07-13T11:39:20;101245.37;;;22.74
52673;BMP280;38568;53.260;-2.504;2023-07-13T11:41:51;101241.82;;;22.68
52673;BMP280;38568;53.260;-2.504;2023-07-13T11:44:13;101241.02;;;23.08
52673;BMP280;38568;53.260;-2.504;2023-07-13T11:46:35;101244.11;;;22.60
52673;BMP280;38568;53.260;-2.504;2023-07-13T11:49:05;101241.80;;;22.82
52673;BMP280;38568;53.260;-2.504;2023-07-13T11:51:29;101240.06;;;22.98
52673;BMP280;38568;53.260;-2.504;2023-07-13T11:53:55;101240.63;;;22.58
52673;BMP280;38568;53.260;-2.504;2023-07-13T11:56:19;101242.22;;;22.66
52673;BMP280;38568;53.260;-2.504;2023-07-13T11:58:47;101240.13;;;22.81
52673;BMP280;38568;53.260;-2.504;2023-07-13T12:01:18;101238.83;;;22.62
52673;BMP280;38568;53.260;-2.504;2023-07-13T12:03:36;101241.41;;;22.97
52673;BMP280;38568;53.260;-2.504;2023-07-13T12:06:04;101240.15;;;22.79
52673;BMP280;38568;53.260;-2.504;2023-07-13T12:08:28;101237.76;;;22.60
52673;BMP280;38568;53.260;-2.504;2023-07-13T12:11:02;101236.71;;;22.92
52673;BMP280;38568;53.260;-2.504;2023-07-13T12:13:19;101233.60;;;22.99
52673;BMP280;38568;53.260;-2.504;2023-07-13T12:15:45;101229.98;;;22.70
52673;BMP280;38568;53.260;-2.504;2023-07-13T12:18:13;101228.95;;;22.47
52673;BMP280;38568;53.260;-2.504;2023-07-13T12:20:38;101225.91;;;22.63
52673;BMP280;38568;53.260;-2.504;2023-07-13T12:23:01;101223.73;;;22.54
52673;BMP280;38568;53.260;-2.504;2023-07-13T12:25:27;101221.29;;;23.16
52673;BMP280;38568;53.260;-2.504;2023-07-13T12:27:57;101221.32;;;22.77
52673;BMP280;38568;53.260;-2.504;2023-07-13T12:30:25;101215.97;;;22.84
52673;BMP280;38568;53.260;-2.504;2023-07-13T12:35:15;101212.26;;;22.93
52673;BMP280;38568;53.260;-2.504;2023-07-13T12:37:34;101210.36;;;22.43
52673;BMP280;38568;53.260;-2.504;2023-07-13T12:39:59;101209.95;;;22.63
52673;BMP280;38568;53.260;-2.504;2023-07-13T12:42:27;101211.80;;;22.50
52673;BMP280;38568;53.260;-2.504;2023-07-13T12:44:53;101209.52;;;22.73
52673;BMP280;38568;53.260;-2.504;2023-07-13T12:47:16;101200.22;;;22.91
52673;BMP280;38568;53.260;-2.504;2023-07-13T12:49:44;101202.37;;;22.99
52673;BMP280;38568;53.260;-2.504;2023-07-13T12:52:15;101206.82;;;22.79
52673;BMP280;38568;53.260;-2.504;2023-07-13T12:54:34;101206.20;;;23.14
52673;BMP280;38568;53.260;-2.504;2023-07-13T12:57:00;101201.75;;;22.96
52673;BMP280;38568;53.260;-2.504;2023-07-13T12:59:30;101204.00;;;23.25
52673;BMP280;38568;53.260;-2.504;2023-07-13T13:01:51;101202.64;;;22.75
52673;BMP280;38568;53.260;-2.504;2023-07-13T13:04:16;101199.75;;;22.77
52673;BMP280;38568;53.260;-2.504;2023-07-13T13:06:41;101197.20;;;22.94
52673;BMP280;38568;53.260;-2.504;2023-07-13T13:09:11;101199.40;;;22.94
52673;BMP280;38568;53.260;-2.504;2023-07-13T13:11:33;101203.80;;;22.58
52673;BMP280;38568;53.260;-2.504;2023-07-13T13:13:58;101209.72;;;23.01
52673;BMP280;38568;53.260;-2.504;2023-07-13T13:16:30;101219.62;;;22.65
52673;BMP280;38568;53.260;-2.504;2023-07-13T13:18:51;101233.91;;;23.06
52673;BMP280;38568;53.260;-2.504;2023-07-13T13:21:17;101225.34;;;22.79
52673;BMP280;38568;53.260;-2.504;2023-07-13T13:23:41;101225.80;;;23.20
52673;BMP280;38568;53.260;-2.504;2023-07-13T13:26:11;101223.91;;;23.25
52673;BMP280;38568;53.260;-2.504;2023-07-13T13:28:33;101215.31;;;22.93
52673;BMP280;38568;53.260;-2.504;2023-07-13T13:31:03;101211.87;;;23.30
52673;BMP280;38568;53.260;-2.504;2023-07-13T13:33:24;101215.00;;;22.64
52673;BMP280;38568;53.260;-2.504;2023-07-13T13:35:50;101214.91;;;23.31
52673;BMP280;38568;53.260;-2.504;2023-07-13T13:38:17;101216.10;;;22.95
52673;BMP280;38568;53.260;-2.504;2023-07-13T13:40:42;101212.51;;;23.22
52673;BMP280;38568;53.260;-2.504;2023-07-13T13:43:15;101211.79;;;22.68
52673;BMP280;38568;53.260;-2.504;2023-07-13T13:45:33;101208.43;;;22.78
52673;BMP280;38568;53.260;-2.504;2023-07-13T13:47:58;101208.50;;;22.84
52673;BMP280;38568;53.260;-2.504;2023-07-13T13:50:23;101213.40;;;22.79